Time;durP1;ratioP1;P1;durP2;ratioP2;P2;SDS_P1;SDS_P2;PMS_P1;PMS_P2;Temp;Humidity;BMP_temperature;BMP_pressure;BME280_temperature;BME280_humidity;BME280_pressure;Samples;Min_cycle;Max_cycle;Signal;HPM_P1;HPM_P2
2022/08/30 00:03:53;;;;;;;0.30;0.20;;;14.40;99.90;;;;;;4843555;29;20085;-83
2022/08/30 00:06:43;;;;;;;0.40;0.20;;;14.50;99.90;;;;;;4839466;29;20511;-83
2022/08/30 00:09:25;;;;;;;0.60;0.20;;;14.50;99.90;;;;;;4821166;29;20110;-83
2022/08/30 00:12:05;;;;;;;0.30;0.20;;;14.50;99.90;;;;;;4787203;29;20062;-83
2022/08/30 00:15:02;;;;;;;1.10;0.38;;;14.50;99.90;;;;;;4842829;29;20061;-83
2022/08/30 00:17:53;;;;;;;0.20;0.20;;;14.40;99.90;;;;;;4839823;29;20454;-83
2022/08/30 00:20:47;;;;;;;0.30;0.30;;;14.40;99.90;;;;;;4838115;29;20507;-83
2022/08/30 00:23:25;;;;;;;0.40;0.20;;;14.40;99.90;;;;;;4830165;29;20132;-83
2022/08/30 00:26:09;;;;;;;0.52;0.20;;;14.30;99.90;;;;;;4843908;29;20089;-83
2022/08/30 00:29:02;;;;;;;0.30;0.20;;;14.20;99.90;;;;;;4847811;29;20508;-82
2022/08/30 00:32:15;;;;;;;0.40;0.20;;;14.10;99.90;;;;;;4850590;29;20510;-83
2022/08/30 00:42:19;;;;;;;0.82;0.30;;;13.90;99.90;;;;;;4854910;29;20066;-80
2022/08/30 00:45:15;;;;;;;0.55;0.30;;;13.90;99.90;;;;;;4846193;29;20054;-83
2022/08/30 00:48:17;;;;;;;0.38;0.38;;;13.90;99.90;;;;;;4844318;29;20050;-83
2022/08/30 00:51:21;;;;;;;0.38;0.30;;;13.90;99.90;;;;;;4850761;29;20125;-83
2022/08/30 00:54:18;;;;;;;0.50;0.20;;;13.80;99.90;;;;;;4850385;29;20156;-83
2022/08/30 00:57:01;;;;;;;0.65;0.25;;;13.80;99.90;;;;;;4849684;29;20046;-82
2022/08/30 00:59:39;;;;;;;0.20;0.20;;;13.80;99.90;;;;;;4851630;29;20042;-83
2022/08/30 01:03:01;;;;;;;0.88;0.30;;;13.80;99.90;;;;;;4851039;29;20053;-83
2022/08/30 01:05:40;;;;;;;0.30;0.30;;;13.70;99.90;;;;;;4830819;29;20054;-83
2022/08/30 01:08:19;;;;;;;1.58;0.28;;;13.80;99.90;;;;;;4850924;29;20563;-82
2022/08/30 01:11:05;;;;;;;0.20;0.20;;;13.70;99.90;;;;;;4849873;29;20049;-82
2022/08/30 01:13:41;;;;;;;0.10;0.10;;;13.70;99.90;;;;;;4846311;29;20077;-83
2022/08/30 01:16:21;;;;;;;0.22;0.20;;;13.70;99.90;;;;;;4850190;29;20145;-80
2022/08/30 01:19:29;;;;;;;2.13;0.30;;;13.70;99.90;;;;;;4847572;29;20054;-80
2022/08/30 01:22:36;;;;;;;0.40;0.30;;;13.60;99.90;;;;;;4851237;29;20049;-80
2022/08/30 01:25:33;;;;;;;0.20;0.20;;;13.60;99.90;;;;;;4856003;29;20061;-80
2022/08/30 01:28:20;;;;;;;0.70;0.30;;;13.60;99.90;;;;;;4850794;29;20534;-80
2022/08/30 01:31:09;;;;;;;0.55;0.30;;;13.60;99.90;;;;;;4860465;29;20061;-80
2022/08/30 01:33:47;;;;;;;0.28;0.17;;;13.50;99.90;;;;;;4834756;29;20571;-80
2022/08/30 01:36:44;;;;;;;0.63;0.30;;;13.50;99.90;;;;;;4859679;29;20439;-80
2022/08/30 01:39:17;;;;;;;0.75;0.32;;;13.60;99.90;;;;;;4843718;29;20153;-80
2022/08/30 01:42:16;;;;;;;0.80;0.30;;;13.60;99.90;;;;;;4855622;29;20053;-80
2022/08/30 01:45:15;;;;;;;0.30;0.20;;;13.60;99.90;;;;;;4851326;29;20049;-80
2022/08/30 01:48:01;;;;;;;;;;;;;;;;;;;;;
2022/08/30 01:50:51;;;;;;;0.47;0.30;;;13.60;99.90;;;;;;4856283;29;20045;-80
2022/08/30 01:53:42;;;;;;;0.50;0.30;;;13.60;99.90;;;;;;4860573;29;20519;-80
2022/08/30 01:56:35;;;;;;;0.52;0.30;;;13.60;99.90;;;;;;4867221;29;20049;-83
2022/08/30 01:59:23;;;;;;;0.73;0.40;;;13.60;99.90;;;;;;4856156;29;20407;-83
2022/08/30 02:02:23;;;;;;;0.40;0.20;;;13.70;99.90;;;;;;4848680;29;20521;-83
2022/08/30 02:08:51;;;;;;;;;;;;;;;;;;;;;
2022/08/30 02:11:37;;;;;;;0.75;0.30;;;13.70;99.90;;;;;;4742246;30;20507;-83
2022/08/30 02:14:33;;;;;;;0.55;0.30;;;13.70;99.90;;;;;;4737439;30;20060;-83
2022/08/30 02:17:23;;;;;;;0.73;0.33;;;13.70;99.90;;;;;;4738300;30;20414;-83
2022/08/30 02:19:59;;;;;;;0.40;0.30;;;13.70;99.90;;;;;;4741848;30;20131;-83
2022/08/30 02:22:46;;;;;;;0.47;0.40;;;13.70;99.90;;;;;;4749596;30;20047;-83
2022/08/30 02:25:41;;;;;;;0.60;0.40;;;13.70;99.90;;;;;;4745311;30;20159;-83
2022/08/30 02:28:41;;;;;;;0.50;0.30;;;13.70;99.90;;;;;;4723868;30;20056;-83
2022/08/30 02:31:30;;;;;;;0.75;0.32;;;13.70;99.90;;;;;;4727754;29;20060;-83
2022/08/30 02:34:13;;;;;;;0.40;0.30;;;13.70;99.90;;;;;;4722426;30;20044;-83
2022/08/30 02:37:14;;;;;;;;;;;;;;;;;;;;;
2022/08/30 02:39:52;;;;;;;0.32;0.20;;;13.80;99.90;;;;;;4712106;30;20132;-82
2022/08/30 02:42:40;;;;;;;0.40;0.30;;;13.80;99.90;;;;;;4726555;30;20052;-83
2022/08/30 02:45:27;;;;;;;1.38;0.40;;;13.80;99.90;;;;;;4796229;29;20050;-83
2022/08/30 02:52:37;;;;;;;3.15;0.30;;;13.80;99.90;;;;;;4842635;29;20052;-82
2022/08/30 02:55:15;;;;;;;0.50;0.30;;;13.80;99.90;;;;;;4844653;29;20061;-83
2022/08/30 02:58:09;;;;;;;0.38;0.35;;;13.80;99.90;;;;;;4846069;29;20512;-83
2022/08/30 03:01:03;;;;;;;;;;;;;;;;;;;;;
2022/08/30 03:03:55;;;;;;;1.20;0.50;;;13.80;99.90;;;;;;4838330;29;20102;-82
2022/08/30 03:06:43;;;;;;;1.00;0.20;;;13.80;99.90;;;;;;4840769;29;20519;-83
2022/08/30 03:09:31;;;;;;;0.70;0.40;;;13.80;99.90;;;;;;4844304;29;20046;-83
2022/08/30 03:12:26;;;;;;;2.95;0.50;;;13.80;99.90;;;;;;4844036;29;20038;-83
2022/08/30 03:18:47;;;;;;;0.40;0.40;;;13.80;99.90;;;;;;4834284;29;19923;-83
2022/08/30 03:21:42;;;;;;;0.75;0.45;;;13.80;99.90;;;;;;4838977;29;20125;-83
2022/08/30 03:24:20;;;;;;;0.63;0.40;;;13.70;99.90;;;;;;4829424;29;20563;-83
2022/08/30 03:27:13;;;;;;;1.02;0.50;;;13.70;99.90;;;;;;4853829;29;20547;-83
2022/08/30 03:30:07;;;;;;;;;;;13.70;99.90;;;;;;4851311;29;20053;-83
2022/08/30 03:32:52;;;;;;;0.65;0.40;;;13.70;99.90;;;;;;4838762;29;19928;-82
2022/08/30 03:35:37;;;;;;;0.40;0.40;;;13.70;99.90;;;;;;4843394;29;20393;-83
2022/08/30 03:56:55;;;;;;;0.63;0.40;;;13.60;99.90;;;;;;4838440;29;20053;-83
2022/08/30 03:59:33;;;;;;;1.00;0.60;;;13.60;99.90;;;;;;4836244;29;20050;-83
2022/08/30 04:02:27;;;;;;;0.70;0.50;;;13.50;99.90;;;;;;4837638;29;20054;-83
2022/08/30 04:05:21;;;;;;;1.70;0.43;;;13.50;99.90;;;;;;4843581;29;20086;-83
2022/08/30 04:08:15;;;;;;;0.60;0.40;;;13.50;99.90;;;;;;4839827;29;20054;-83
2022/08/30 04:11:15;;;;;;;1.15;0.50;;;13.40;99.90;;;;;;4843218;29;20081;-83
2022/08/30 04:14:01;;;;;;;0.43;0.40;;;13.40;99.90;;;;;;4842411;29;20500;-83
2022/08/30 04:24:15;;;;;;;1.55;0.60;;;13.30;99.90;;;;;;4843100;29;20093;-83
2022/08/30 04:27:14;;;;;;;;;;;;;;;;;;;;;
2022/08/30 04:30:00;;;;;;;0.75;0.50;;;13.30;99.90;;;;;;4843101;29;20082;-82
2022/08/30 04:32:52;;;;;;;;;;;;;;;;;;;;;
2022/08/30 04:35:33;;;;;;;1.75;0.60;;;13.20;99.90;;;;;;4842097;29;20058;-83
2022/08/30 04:38:23;;;;;;;1.45;0.60;;;13.10;99.90;;;;;;4842967;29;20054;-83
2022/08/30 04:41:19;;;;;;;1.45;0.50;;;13.10;99.90;;;;;;4842384;29;20042;-83
2022/08/30 05:09:50;;;;;;;1.23;0.63;;;12.90;99.90;;;;;;4848825;29;20040;-83
2022/08/30 05:12:30;;;;;;;1.27;0.55;;;12.90;99.90;;;;;;4841853;29;20136;-83
2022/08/30 05:15:14;;;;;;;0.90;0.50;;;13.00;99.90;;;;;;4842085;29;20054;-83
2022/08/30 05:17:56;;;;;;;1.00;0.60;;;12.80;99.90;;;;;;4842174;29;20046;-83
2022/08/30 05:20:31;;;;;;;0.57;0.40;;;12.90;99.90;;;;;;4826698;29;20042;-82
2022/08/30 05:23:19;;;;;;;0.73;0.43;;;12.80;99.90;;;;;;4842201;29;20046;-83
2022/08/30 05:25:59;;;;;;;0.50;0.40;;;12.80;99.90;;;;;;4834008;29;20056;-83
2022/08/30 05:28:45;;;;;;;0.90;0.40;;;12.80;99.90;;;;;;4853924;29;20061;-83
2022/08/30 05:31:43;;;;;;;1.35;0.50;;;12.90;99.90;;;;;;4860548;29;20049;-87
2022/08/30 05:34:23;;;;;;;0.85;0.40;;;12.90;99.90;;;;;;4855942;29;20038;-83
2022/08/30 05:37:01;;;;;;;0.30;0.30;;;12.80;99.90;;;;;;4837842;29;20081;-84
2022/08/30 05:39:39;;;;;;;0.50;0.30;;;12.90;99.90;;;;;;4857983;29;20102;-82
2022/08/30 05:42:34;;;;;;;0.63;0.35;;;12.90;99.90;;;;;;4856889;29;20057;-82
2022/08/30 05:45:27;;;;;;;0.85;0.40;;;13.00;99.90;;;;;;4860453;29;20558;-85
2022/08/30 05:48:19;;;;;;;0.50;0.40;;;13.10;99.90;;;;;;4857127;29;20523;-85
2022/08/30 05:51:22;;;;;;;0.70;0.40;;;13.10;99.90;;;;;;4845697;29;20049;-85
2022/08/30 05:54:07;;;;;;;0.52;0.40;;;13.20;99.90;;;;;;4852302;29;20057;-85
2022/08/30 06:03:14;;;;;;;1.05;0.43;;;13.50;99.90;;;;;;4926436;23;20069;-86
2022/08/30 06:05:58;;;;;;;;;;;;;;;;;;;;;
2022/08/30 06:09:00;;;;;;;0.52;0.30;;;13.70;99.90;;;;;;4854436;29;20056;-85
2022/08/30 06:11:36;;;;;;;0.50;0.40;;;13.90;99.90;;;;;;4860701;29;20117;-87
2022/08/30 06:14:14;;;;;;;0.90;0.50;;;14.00;99.90;;;;;;4874257;29;20482;-85
2022/08/30 06:17:00;;;;;;;0.50;0.30;;;14.20;99.90;;;;;;4873900;29;20053;-85
2022/08/30 06:19:36;;;;;;;0.68;0.40;;;14.30;99.90;;;;;;4833280;29;20049;-85
2022/08/30 06:22:14;;;;;;;0.40;0.38;;;14.50;99.90;;;;;;4871398;29;20041;-85
2022/08/30 06:25:01;;;;;;;1.67;0.40;;;14.70;99.90;;;;;;4870986;29;20126;-86
2022/08/30 06:27:51;;;;;;;;;;;;;;;;;;;;;
2022/08/30 06:41:32;;;;;;;1.00;0.50;;;15.70;99.90;;;;;;4846636;29;20111;-87
2022/08/30 06:44:17;;;;;;;2.25;0.70;;;15.80;99.90;;;;;;4855489;29;20104;-87
2022/08/30 06:47:17;;;;;;;;;;;;;;;;;;;;;
2022/08/30 06:50:40;;;;;;;;;;;;;;;;;;;;;
2022/08/30 06:53:27;;;;;;;2.22;0.50;;;16.30;99.90;;;;;;4822046;29;20049;-88
2022/08/30 06:56:29;;;;;;;0.80;0.35;;;16.50;99.90;;;;;;4807675;29;20400;-87
2022/08/30 08:22:54;;;;;;;;;;;;;;;;;;;;;
2022/08/30 09:43:30;;;;;;;;;;;;;;;;;;;;;
2022/08/30 09:46:43;;;;;;;0.93;0.20;;;21.30;97.50;;;;;;4765146;30;20087;-87
2022/08/30 10:20:01;;;;;;;1.23;0.30;;;21.70;96.80;;;;;;4774451;30;20071;-89
2022/08/30 11:11:20;;;;;;;0.47;0.20;;;22.60;94.50;;;;;;4758670;30;20086;-83
2022/08/30 11:14:03;;;;;;;0.85;0.20;;;22.30;94.80;;;;;;4742426;30;20060;-82
2022/08/30 11:16:57;;;;;;;2.13;0.22;;;22.40;96.00;;;;;;4740843;30;20048;-82
2022/08/30 11:19:44;;;;;;;1.30;0.20;;;22.70;95.50;;;;;;4718954;30;20044;-83
2022/08/30 11:22:36;;;;;;;3.10;0.30;;;23.00;95.60;;;;;;4733530;30;20558;-83
2022/08/30 11:25:38;;;;;;;1.77;0.30;;;23.20;95.10;;;;;;4740035;30;20382;-82
2022/08/30 11:39:48;;;;;;;1.05;0.20;;;23.80;94.10;;;;;;4740731;30;20090;-87
2022/08/30 11:42:46;;;;;;;1.23;0.40;;;23.80;93.70;;;;;;4725667;30;20063;-84
2022/08/30 11:45:34;;;;;;;1.67;0.40;;;24.00;92.40;;;;;;4741477;30;20057;-85
2022/08/30 11:48:43;;;;;;;0.38;0.20;;;23.80;93.60;;;;;;4735294;30;20049;-84
2022/08/30 11:51:54;;;;;;;2.00;0.25;;;23.40;93.50;;;;;;4749521;30;20133;-84
2022/08/30 11:54:39;;;;;;;1.30;0.20;;;23.30;92.90;;;;;;4760009;30;20052;-84
2022/08/30 11:57:53;;;;;;;0.65;0.22;;;23.20;94.10;;;;;;4765340;30;20426;-84
2022/08/30 12:01:22;;;;;;;;;;;;;;;;;;;;;
2022/08/30 12:04:55;;;;;;;1.10;0.25;;;23.20;94.10;;;;;;4808528;24;20102;-85
2022/08/30 12:07:53;;;;;;;1.73;0.32;;;23.00;93.90;;;;;;4778015;30;20055;-86
2022/08/30 12:10:47;;;;;;;1.13;0.30;;;23.20;94.30;;;;;;4772154;30;20108;-84
2022/08/30 12:13:47;;;;;;;1.00;0.32;;;23.20;93.90;;;;;;5070715;24;20063;-88
2022/08/30 14:02:47;;;;;;;2.67;0.40;;;24.40;94.10;;;;;;5352715;24;20060;-91
2022/08/30 14:22:05;;;;;;;1.15;0.35;;;24.00;94.80;;;;;;5274275;24;20051;-86
2022/08/30 14:44:53;;;;;;;0.68;0.20;;;23.20;95.60;;;;;;4844041;24;20509;-90
2022/08/30 14:48:05;;;;;;;0.63;0.30;;;23.30;95.60;;;;;;4772010;30;20063;-94
2022/08/30 14:50:41;;;;;;;2.45;0.22;;;23.60;95.70;;;;;;4760391;30;20480;-95
2022/08/30 14:53:30;;;;;;;0.47;0.15;;;23.70;95.20;;;;;;4764110;30;20095;-91
2022/08/30 14:56:12;;;;;;;1.00;0.30;;;23.80;94.80;;;;;;4774190;30;20052;-87
2022/08/30 14:58:44;;;;;;;2.25;0.20;;;23.70;95.50;;;;;;4766936;30;20063;-92
2022/08/30 15:01:17;;;;;;;1.58;0.20;;;23.50;95.10;;;;;;4770559;30;20123;-90
2022/08/30 15:03:56;;;;;;;0.88;0.30;;;23.20;95.20;;;;;;4765758;30;20494;-93
2022/08/30 15:06:30;;;;;;;0.95;0.28;;;23.30;95.90;;;;;;4780316;30;20040;-92
2022/08/30 15:08:59;;;;;;;1.15;0.25;;;23.30;96.00;;;;;;4763196;30;20036;-91
2022/08/30 15:11:30;;;;;;;1.58;0.15;;;23.50;96.00;;;;;;4759538;30;20050;-89
2022/08/30 15:53:11;;;;;;;1.17;0.45;;;22.00;98.20;;;;;;4323041;24;20161;-85
2022/08/30 15:59:14;;;;;;;1.33;0.57;;;21.70;99.40;;;;;;4973927;24;20491;-87
2022/08/30 16:01:53;;;;;;;0.80;0.30;;;21.60;99.90;;;;;;4783613;30;20047;-92
2022/08/30 16:22:09;;;;;;;1.05;0.30;;;21.20;99.90;;;;;;4813254;24;20083;-89
2022/08/30 16:25:03;;;;;;;2.22;0.40;;;21.00;99.90;;;;;;4767686;30;20060;-86
2022/08/30 18:33:01;;;;;;;1.67;0.30;;;18.50;99.90;;;;;;5119163;24;19925;-84
2022/08/30 18:46:49;;;;;;;0.77;0.30;;;18.10;99.90;;;;;;4752252;30;20087;-87
2022/08/30 19:05:15;;;;;;;0.82;0.28;;;17.80;99.90;;;;;;4799558;29;20152;-82
2022/08/30 19:08:01;;;;;;;0.45;0.20;;;17.70;99.90;;;;;;4795705;29;20043;-85
2022/08/30 19:10:28;;;;;;;0.30;0.13;;;17.60;99.90;;;;;;4798813;29;20184;-82
2022/08/30 19:12:54;;;;;;;0.20;0.20;;;17.60;99.90;;;;;;4792759;29;20062;-84
2022/08/30 19:15:20;;;;;;;4.30;0.47;;;17.50;99.90;;;;;;4790718;29;20069;-83
2022/08/30 19:17:48;;;;;;;0.28;0.20;;;17.50;99.90;;;;;;4791055;29;20050;-84
2022/08/30 19:20:19;;;;;;;1.25;0.28;;;17.50;99.90;;;;;;4798754;29;20463;-84
2022/08/30 19:22:46;;;;;;;0.40;0.20;;;17.40;99.90;;;;;;4779362;30;20047;-83
2022/08/30 19:25:16;;;;;;;0.55;0.20;;;17.40;99.90;;;;;;4796422;29;20040;-85
2022/08/30 19:27:43;;;;;;;0.80;0.20;;;17.30;99.90;;;;;;4774045;30;20053;-83
2022/08/30 19:30:16;;;;;;;0.40;0.20;;;17.30;99.90;;;;;;4773489;30;20055;-86
2022/08/30 19:32:42;;;;;;;0.20;0.20;;;17.30;99.90;;;;;;4767412;30;20077;-84
2022/08/30 19:35:10;;;;;;;0.30;0.17;;;17.30;99.90;;;;;;4781046;29;20062;-84
2022/08/30 19:37:40;;;;;;;0.98;0.22;;;17.30;99.90;;;;;;4787068;29;20039;-83
2022/08/30 19:40:14;;;;;;;0.55;0.20;;;17.30;99.90;;;;;;4803054;29;20099;-83
2022/08/30 19:42:45;;;;;;;0.75;0.20;;;17.30;99.90;;;;;;4791897;29;20404;-85
2022/08/30 19:45:16;;;;;;;0.30;0.20;;;17.20;99.90;;;;;;4806438;29;20054;-83
2022/08/30 19:47:45;;;;;;;0.20;0.13;;;16.90;99.90;;;;;;4790761;29;20177;-85
2022/08/30 19:50:15;;;;;;;0.82;0.10;;;17.10;99.90;;;;;;4788464;29;20045;-85
2022/08/30 19:52:47;;;;;;;0.13;0.13;;;17.20;99.90;;;;;;4787981;29;20046;-85
2022/08/30 19:55:35;;;;;;;0.55;0.20;;;17.10;99.90;;;;;;4779790;29;20073;-85
2022/08/30 19:58:38;;;;;;;;;;;;;;;;;;;;;
2022/08/30 20:01:37;;;;;;;0.70;0.20;;;17.10;99.90;;;;;;4789194;29;20067;-85
2022/08/30 20:04:26;;;;;;;0.95;0.28;;;17.20;99.90;;;;;;4788755;29;20401;-84
2022/08/30 20:07:36;;;;;;;0.40;0.20;;;17.20;99.90;;;;;;4794840;29;20079;-85
2022/08/30 20:17:44;;;;;;;0.40;0.10;;;17.20;99.90;;;;;;4805445;29;20070;-86
2022/08/30 20:20:45;;;;;;;0.98;0.10;;;17.30;99.90;;;;;;4804874;29;20046;-86
2022/08/30 20:23:32;;;;;;;0.35;0.17;;;17.30;99.90;;;;;;4809283;29;20057;-85
2022/08/30 20:26:24;;;;;;;0.20;0.10;;;17.30;99.90;;;;;;4784446;29;20516;-85
2022/08/30 20:29:13;;;;;;;0.40;0.20;;;17.30;99.90;;;;;;4789103;29;20451;-85
2022/08/30 20:31:55;;;;;;;0.28;0.10;;;17.40;99.90;;;;;;4796230;29;20520;-85
2022/08/30 20:42:09;;;;;;;1.50;0.13;;;17.50;99.90;;;;;;4791598;29;20092;-86
2022/08/30 20:44:59;;;;;;;1.85;0.20;;;17.70;99.90;;;;;;4804980;29;20429;-84
2022/08/30 20:47:48;;;;;;;0.80;0.20;;;17.50;99.90;;;;;;4805746;29;20466;-85
2022/08/30 20:50:30;;;;;;;0.85;0.10;;;17.50;99.90;;;;;;4790473;29;20043;-85
2022/08/30 20:53:13;;;;;;;0.20;0.10;;;17.40;99.90;;;;;;4789703;29;20155;-85
2022/08/30 20:56:07;;;;;;;0.40;0.10;;;17.50;99.90;;;;;;4788367;29;20385;-84
2022/08/30 20:58:43;;;;;;;1.05;0.10;;;17.50;99.90;;;;;;4787460;29;20130;-83
2022/08/30 21:09:35;;;;;;;0.63;0.20;;;17.50;99.90;;;;;;4802941;29;20150;-84
2022/08/30 21:12:12;;;;;;;0.68;0.30;;;17.50;99.90;;;;;;4788563;29;20047;-84
2022/08/30 21:15:05;;;;;;;0.00;0.00;;;17.50;99.90;;;;;;4788543;29;20047;-84
2022/08/30 21:18:02;;;;;;;0.17;0.10;;;17.60;99.90;;;;;;4786249;29;20055;-84
2022/08/30 21:20:42;;;;;;;0.25;0.10;;;17.50;99.90;;;;;;4807346;29;20515;-84
2022/08/30 21:23:35;;;;;;;2.17;0.10;;;17.50;99.90;;;;;;4782585;29;20054;-84
2022/08/30 21:26:36;;;;;;;;;;;;;;;;;;;;;
2022/08/30 21:40:22;;;;;;;0.10;0.10;;;17.60;99.90;;;;;;4788039;29;20504;-83
2022/08/30 21:43:09;;;;;;;0.20;0.10;;;17.30;99.90;;;;;;4789031;29;20059;-82
2022/08/30 21:45:55;;;;;;;0.10;0.10;;;17.30;99.90;;;;;;4794389;29;20097;-82
2022/08/30 21:48:45;;;;;;;1.17;0.17;;;17.30;99.90;;;;;;4782387;29;20569;-83
2022/08/30 21:51:29;;;;;;;0.20;0.10;;;17.20;99.90;;;;;;4788953;29;20075;-84
2022/08/30 21:54:25;;;;;;;;;;;;;;;;;;;;;
2022/08/30 21:57:14;;;;;;;;;;;;;;;;;;;;;
2022/08/30 22:00:02;;;;;;;0.52;0.10;;;17.10;99.90;;;;;;4756593;29;20074;-84
2022/08/30 22:03:01;;;;;;;0.30;0.10;;;17.10;99.90;;;;;;4798195;29;20043;-84
2022/08/30 22:06:01;;;;;;;0.20;0.10;;;17.00;99.90;;;;;;4801180;29;20055;-83
2022/08/30 22:08:54;;;;;;;1.35;0.10;;;17.00;99.90;;;;;;4786518;29;20047;-84
2022/08/30 22:11:27;;;;;;;1.25;0.35;;;16.90;99.90;;;;;;4798127;29;20138;-83
2022/08/30 22:14:06;;;;;;;0.20;0.20;;;16.90;99.90;;;;;;4805092;29;20055;-83
2022/08/30 22:16:55;;;;;;;;;;;;;;;;;;;;;
2022/08/30 22:19:47;;;;;;;0.20;0.10;;;16.80;99.90;;;;;;4771803;29;20052;-83
2022/08/30 22:22:38;;;;;;;0.10;0.03;;;16.70;99.90;;;;;;4792204;29;20047;-84
2022/08/30 22:25:26;;;;;;;0.20;0.10;;;16.70;99.90;;;;;;4805105;29;20050;-84
2022/08/30 22:28:19;;;;;;;0.32;0.10;;;16.60;99.90;;;;;;4792216;29;20050;-84
2022/08/30 22:31:01;;;;;;;0.47;0.10;;;16.50;99.90;;;;;;4779465;29;20039;-84
2022/08/30 22:33:55;;;;;;;0.10;0.00;;;16.50;99.90;;;;;;4788204;29;20051;-83
2022/08/30 22:36:49;;;;;;;0.17;0.10;;;16.40;99.90;;;;;;4787605;29;20505;-84
2022/08/30 22:47:42;;;;;;;0.10;0.10;;;16.20;99.90;;;;;;4790669;29;20079;-84
2022/08/30 22:50:22;;;;;;;0.10;0.03;;;16.10;99.90;;;;;;4791440;29;20587;-84
2022/08/30 22:53:09;;;;;;;0.10;0.10;;;16.10;99.90;;;;;;4789352;29;20050;-84
2022/08/30 22:56:04;;;;;;;0.10;0.10;;;16.00;99.90;;;;;;4804624;29;20050;-83
2022/08/30 22:59:03;;;;;;;;;;;;;;;;;;;;;
2022/08/30 23:01:53;;;;;;;;;;;;;;;;;;;;;
2022/08/30 23:04:45;;;;;;;0.20;0.10;;;15.80;99.90;;;;;;4806804;29;20057;-84
2022/08/30 23:07:37;;;;;;;;;;;;;;;;;;;;;
2022/08/30 23:10:35;;;;;;;0.05;0.05;;;15.60;99.90;;;;;;4792818;29;20054;-84
2022/08/30 23:13:32;;;;;;;0.10;0.10;;;15.60;99.90;;;;;;4790266;29;20047;-84
2022/08/30 23:16:14;;;;;;;0.13;0.00;;;15.50;99.90;;;;;;4788929;29;20047;-83
2022/08/30 23:19:03;;;;;;;0.10;0.03;;;15.50;99.90;;;;;;4790996;29;20055;-83
2022/08/30 23:21:53;;;;;;;0.10;0.10;;;15.50;99.90;;;;;;4783904;29;20066;-83
